Time;durP1;ratioP1;P1;durP2;ratioP2;P2;SDS_P1;SDS_P2;PMS_P1;PMS_P2;Temp;Humidity;BMP_temperature;BMP_pressure;BME280_temperature;BME280_humidity;BME280_pressure;Samples;Min_cycle;Max_cycle;Signal;HPM_P1;HPM_P2
2022/01/23 00:00:27;;;;;;;2.00;0.70;;;10.40;71.00;;;;;;6159241;23;20028;-77
2022/01/23 00:02:55;;;;;;;1.23;0.50;;;10.40;71.00;;;;;;6134453;23;20025;-76
2022/01/23 00:05:23;;;;;;;1.17;0.47;;;10.40;71.70;;;;;;6159313;23;20100;-77
2022/01/23 00:07:51;;;;;;;1.67;0.40;;;10.40;71.10;;;;;;6159840;23;20044;-78
2022/01/23 00:10:17;;;;;;;2.10;0.52;;;10.40;71.10;;;;;;6157594;23;20089;-75
2022/01/23 00:12:50;;;;;;;4.60;0.70;;;10.40;71.10;;;;;;6159148;23;20060;-78
2022/01/23 00:18:00;;;;;;;2.22;0.50;;;10.40;71.10;;;;;;6159384;23;20096;-76
2022/01/23 00:20:26;;;;;;;1.42;0.40;;;10.40;71.10;;;;;;6159680;23;20061;-76
2022/01/23 00:22:57;;;;;;;1.02;0.32;;;10.40;71.00;;;;;;6158769;23;20144;-77
2022/01/23 00:30:54;;;;;;;1.85;0.55;;;10.50;71.10;;;;;;6158731;23;20022;-77
2022/01/23 00:33:21;;;;;;;2.08;0.40;;;10.40;71.00;;;;;;6159173;23;20056;-78
2022/01/23 00:35:47;;;;;;;2.75;0.63;;;10.50;71.60;;;;;;6157948;23;20085;-77
2022/01/23 00:38:15;;;;;;;1.27;0.28;;;10.50;71.00;;;;;;6159586;23;20027;-78
2022/01/23 00:40:43;;;;;;;3.10;0.50;;;10.50;71.00;;;;;;6158079;23;20100;-77
2022/01/23 00:43:17;;;;;;;2.03;0.45;;;10.40;70.90;;;;;;6158688;23;20133;-77
2022/01/23 00:45:48;;;;;;;2.22;0.45;;;10.40;70.90;;;;;;6157956;23;20092;-78
2022/01/23 00:48:15;;;;;;;2.28;0.52;;;10.50;71.00;;;;;;6159124;23;20057;-76
2022/01/23 00:50:45;;;;;;;2.95;0.50;;;10.50;71.00;;;;;;6158558;23;20049;-77
2022/01/23 00:53:13;;;;;;;1.73;0.30;;;10.40;70.90;;;;;;6132150;23;20029;-76
2022/01/23 00:55:44;;;;;;;2.33;0.40;;;10.50;71.00;;;;;;6158808;23;20021;-75
2022/01/23 00:58:11;;;;;;;1.08;0.38;;;10.40;71.00;;;;;;6158589;23;20021;-77
2022/01/23 01:00:38;;;;;;;2.25;0.50;;;10.40;71.00;;;;;;6158046;23;20021;-75
2022/01/23 01:03:04;;;;;;;1.27;0.30;;;10.40;71.00;;;;;;6158824;23;20127;-77
2022/01/23 01:05:30;;;;;;;1.48;0.30;;;10.40;71.00;;;;;;6157046;23;20018;-78
2022/01/23 01:07:57;;;;;;;1.77;0.47;;;10.40;71.10;;;;;;6158099;23;20076;-77
2022/01/23 01:10:31;;;;;;;1.27;0.30;;;10.40;71.10;;;;;;6159172;23;20029;-75
2022/01/23 01:12:59;;;;;;;0.88;0.40;;;10.40;71.10;;;;;;6158262;23;20021;-75
2022/01/23 01:15:52;;;;;;;1.90;0.40;;;10.40;71.10;;;;;;6158480;23;20498;-77
2022/01/23 01:32:04;;;;;;;1.40;0.57;;;10.40;71.70;;;;;;6158266;23;20025;-76
2022/01/23 01:34:41;;;;;;;2.00;0.40;;;10.40;71.10;;;;;;6158187;23;20028;-78
2022/01/23 01:37:10;;;;;;;1.92;0.45;;;10.40;71.10;;;;;;6157142;23;20040;-75
2022/01/23 01:39:35;;;;;;;1.30;0.32;;;10.40;71.10;;;;;;6157428;23;20411;-76
2022/01/23 01:42:01;;;;;;;2.17;0.52;;;10.40;71.10;;;;;;6158406;23;20028;-76
2022/01/23 01:44:27;;;;;;;2.83;0.70;;;10.40;71.10;;;;;;6157029;23;20101;-75
2022/01/23 01:46:53;;;;;;;2.55;0.45;;;10.40;71.20;;;;;;6157438;23;20018;-75
2022/01/23 01:49:30;;;;;;;1.30;0.40;;;10.40;71.20;;;;;;6157311;23;20485;-77
2022/01/23 01:51:59;;;;;;;1.23;0.57;;;10.40;71.20;;;;;;6156759;23;20021;-75
2022/01/23 01:54:29;;;;;;;1.27;0.50;;;10.40;71.10;;;;;;6158697;23;20411;-78
2022/01/23 01:57:10;;;;;;;2.08;0.40;;;10.40;71.10;;;;;;6157705;23;20501;-75
2022/01/23 02:10:23;;;;;;;1.57;0.50;;;10.40;71.10;;;;;;6158169;23;20274;-78
2022/01/23 02:15:58;;;;;;;0.88;0.30;;;10.40;71.30;;;;;;6157972;23;20022;-76
2022/01/23 02:22:27;;;;;;;2.25;0.30;;;10.40;71.20;;;;;;6157154;23;20084;-76
2022/01/23 02:51:31;;;;;;;1.33;0.40;;;10.40;71.20;;;;;;6156118;23;20025;-76
2022/01/23 02:54:26;;;;;;;1.50;0.60;;;10.40;71.20;;;;;;6158776;23;20343;-77
2022/01/23 02:56:54;;;;;;;1.33;0.43;;;10.40;71.20;;;;;;6157847;23;20032;-75
2022/01/23 02:59:25;;;;;;;1.23;0.50;;;10.40;71.20;;;;;;6156841;23;20412;-75
2022/01/23 03:02:10;;;;;;;1.35;0.50;;;10.40;71.20;;;;;;6156692;23;20024;-78
2022/01/23 03:04:40;;;;;;;0.80;0.28;;;10.40;71.20;;;;;;6157910;23;20022;-77
2022/01/23 03:14:56;;;;;;;1.13;0.30;;;10.40;71.20;;;;;;6158404;23;20021;-77
2022/01/23 03:33:28;;;;;;;0.55;0.30;;;10.40;71.20;;;;;;6158982;23;20434;-77
2022/01/23 03:35:54;;;;;;;0.60;0.30;;;10.40;71.20;;;;;;6159393;23;20024;-77
2022/01/23 03:38:20;;;;;;;0.77;0.40;;;10.40;71.20;;;;;;6158240;23;20018;-75
2022/01/23 03:40:46;;;;;;;0.85;0.30;;;10.40;71.30;;;;;;6157883;23;20039;-76
2022/01/23 03:43:14;;;;;;;0.50;0.25;;;10.40;71.20;;;;;;6158897;23;20022;-76
2022/01/23 03:46:08;;;;;;;0.80;0.30;;;10.40;71.20;;;;;;6158240;23;20017;-75
2022/01/23 03:51:00;;;;;;;0.70;0.40;;;10.40;71.20;;;;;;6159424;23;20089;-76
2022/01/23 03:53:26;;;;;;;1.20;0.40;;;10.40;71.30;;;;;;6159158;23;20033;-77
2022/01/23 03:55:53;;;;;;;1.00;0.30;;;10.40;71.30;;;;;;6158310;23;20435;-78
2022/01/23 03:58:19;;;;;;;0.68;0.20;;;10.40;71.30;;;;;;6157593;23;20018;-77
2022/01/23 04:00:44;;;;;;;1.00;0.25;;;10.40;71.20;;;;;;6159181;23;20025;-76
2022/01/23 04:03:10;;;;;;;1.02;0.30;;;10.40;71.30;;;;;;6158713;23;20427;-75
2022/01/23 04:05:36;;;;;;;0.80;0.20;;;10.40;71.20;;;;;;6158065;23;20100;-75
2022/01/23 04:08:02;;;;;;;0.55;0.40;;;10.40;71.20;;;;;;6159108;23;20021;-75
2022/01/23 04:10:27;;;;;;;1.50;0.38;;;10.40;71.20;;;;;;6159069;23;20112;-77
2022/01/23 04:13:08;;;;;;;0.60;0.30;;;10.40;71.20;;;;;;6159459;23;20025;-75
2022/01/23 04:15:46;;;;;;;0.57;0.30;;;10.40;71.10;;;;;;6157965;23;20474;-76
2022/01/23 04:21:04;;;;;;;0.20;0.10;;;10.50;71.10;;;;;;6157389;23;20053;-78
2022/01/23 04:31:45;;;;;;;1.33;0.47;;;10.40;71.00;;;;;;6158574;23;20022;-77
2022/01/23 04:45:27;;;;;;;0.55;0.30;;;10.40;71.00;;;;;;6157838;23;19956;-77
2022/01/23 05:00:00;;;;;;;0.85;0.30;;;10.40;71.00;;;;;;6157553;23;20096;-75
2022/01/23 05:04:37;;;;;;;0.93;0.30;;;10.50;71.10;;;;;;6158395;23;20033;-77
2022/01/23 05:07:06;;;;;;;0.52;0.25;;;10.50;71.00;;;;;;6157602;23;20014;-76
2022/01/23 05:09:33;;;;;;;0.98;0.30;;;10.50;71.00;;;;;;6158755;23;20025;-75
2022/01/23 05:12:10;;;;;;;0.70;0.30;;;10.40;71.00;;;;;;6157642;23;20422;-75
2022/01/23 05:14:42;;;;;;;0.75;0.30;;;10.50;71.60;;;;;;6157666;23;20419;-78
2022/01/23 05:17:10;;;;;;;1.23;0.30;;;10.40;71.00;;;;;;6158331;23;20032;-77
2022/01/23 05:19:38;;;;;;;1.15;0.40;;;10.40;71.00;;;;;;6157492;23;20021;-77
2022/01/23 05:22:26;;;;;;;0.63;0.28;;;10.40;71.00;;;;;;6157348;23;20091;-77
2022/01/23 05:25:11;;;;;;;0.80;0.30;;;10.40;71.00;;;;;;6157210;23;20088;-76
2022/01/23 05:27:37;;;;;;;0.45;0.20;;;10.40;71.10;;;;;;6157672;23;20292;-77
2022/01/23 05:30:04;;;;;;;0.30;0.20;;;10.40;71.10;;;;;;6159413;23;20060;-75
2022/01/23 05:32:39;;;;;;;0.88;0.30;;;10.40;71.00;;;;;;6157346;23;20033;-75
2022/01/23 05:35:07;;;;;;;0.82;0.20;;;10.40;71.10;;;;;;6157153;23;20017;-77
2022/01/23 05:37:33;;;;;;;0.55;0.35;;;10.40;71.10;;;;;;6156970;23;20049;-75
2022/01/23 05:40:00;;;;;;;0.95;0.20;;;10.40;71.10;;;;;;6158971;23;20331;-77
2022/01/23 05:42:26;;;;;;;0.65;0.30;;;10.40;71.10;;;;;;6158030;23;20374;-78
2022/01/23 05:44:51;;;;;;;1.05;0.30;;;10.40;71.10;;;;;;6158536;23;20018;-77
2022/01/23 05:47:17;;;;;;;1.50;0.25;;;10.40;71.10;;;;;;6156889;23;20105;-77
2022/01/23 05:49:43;;;;;;;0.20;0.10;;;10.40;71.10;;;;;;6157012;23;20093;-75
2022/01/23 05:52:09;;;;;;;0.57;0.20;;;10.40;71.10;;;;;;6157883;23;20028;-76
2022/01/23 05:54:35;;;;;;;0.95;0.22;;;10.40;71.10;;;;;;6158662;23;20084;-78
2022/01/23 05:57:01;;;;;;;0.60;0.20;;;10.40;71.10;;;;;;6158116;23;20021;-76
2022/01/23 05:59:27;;;;;;;0.63;0.20;;;10.40;71.10;;;;;;6158501;23;20021;-77
2022/01/23 06:01:54;;;;;;;0.75;0.20;;;10.40;71.10;;;;;;6158813;23;20292;-75
2022/01/23 06:04:21;;;;;;;1.38;0.25;;;10.40;71.10;;;;;;6158283;23;20096;-77
2022/01/23 06:06:47;;;;;;;0.98;0.20;;;10.40;71.10;;;;;;6158307;23;20339;-77
2022/01/23 06:09:13;;;;;;;0.60;0.30;;;10.40;71.00;;;;;;6158023;23;20017;-76
2022/01/23 06:11:39;;;;;;;0.50;0.20;;;10.40;71.00;;;;;;6157610;23;20052;-75
2022/01/23 06:14:07;;;;;;;0.50;0.17;;;10.40;71.00;;;;;;6158629;23;20088;-76
2022/01/23 06:16:32;;;;;;;0.43;0.25;;;10.50;71.00;;;;;;6157961;23;20021;-75
2022/01/23 06:18:58;;;;;;;0.60;0.20;;;10.40;71.00;;;;;;6157689;23;20032;-77
2022/01/23 06:21:25;;;;;;;0.52;0.22;;;10.40;71.10;;;;;;6156440;23;20033;-75
2022/01/23 06:24:01;;;;;;;0.95;0.20;;;10.40;71.10;;;;;;6157875;23;20028;-77
2022/01/23 06:26:36;;;;;;;0.98;0.20;;;10.40;71.10;;;;;;6157989;23;20096;-76
2022/01/23 06:29:04;;;;;;;1.85;0.10;;;10.40;71.10;;;;;;6157854;23;20022;-76
2022/01/23 06:31:29;;;;;;;0.52;0.20;;;10.40;71.10;;;;;;6157912;23;20080;-77
2022/01/23 06:33:55;;;;;;;0.60;0.10;;;10.40;71.10;;;;;;6158502;23;20013;-76
2022/01/23 06:36:21;;;;;;;0.85;0.10;;;10.40;71.10;;;;;;6156667;23;20014;-77
2022/01/23 06:38:47;;;;;;;0.50;0.10;;;10.40;71.10;;;;;;6159220;23;20344;-76
2022/01/23 06:41:12;;;;;;;0.95;0.25;;;10.40;71.10;;;;;;6157036;23;20053;-76
2022/01/23 06:43:38;;;;;;;0.30;0.10;;;10.40;71.10;;;;;;6156315;23;20053;-75
2022/01/23 06:46:04;;;;;;;0.60;0.20;;;10.40;71.20;;;;;;6156313;23;20088;-75
2022/01/23 06:48:29;;;;;;;0.85;0.30;;;10.40;71.20;;;;;;6156571;23;20028;-76
2022/01/23 06:50:55;;;;;;;0.40;0.15;;;10.40;71.20;;;;;;6158251;23;20419;-75
2022/01/23 06:53:21;;;;;;;1.98;0.20;;;10.40;71.20;;;;;;6160089;23;20036;-77
2022/01/23 06:55:47;;;;;;;0.77;0.20;;;10.40;71.20;;;;;;6159680;23;20415;-77
2022/01/23 06:58:12;;;;;;;0.30;0.10;;;10.40;71.10;;;;;;6159001;23;20079;-76
2022/01/23 07:00:38;;;;;;;0.63;0.13;;;10.40;71.10;;;;;;6159668;23;20106;-75
2022/01/23 07:03:04;;;;;;;0.63;0.10;;;10.40;71.00;;;;;;6159905;23;20551;-77
2022/01/23 07:05:29;;;;;;;0.50;0.13;;;10.40;71.00;;;;;;6160619;23;20025;-78
2022/01/23 07:07:55;;;;;;;0.28;0.10;;;10.40;71.00;;;;;;6159820;23;20088;-76
2022/01/23 07:10:21;;;;;;;0.75;0.20;;;10.40;71.00;;;;;;6158894;23;20486;-76
2022/01/23 07:12:47;;;;;;;0.75;0.25;;;10.50;71.10;;;;;;6159437;23;20095;-76
2022/01/23 07:15:13;;;;;;;0.88;0.30;;;10.50;71.00;;;;;;6158771;23;20399;-78
2022/01/23 07:17:40;;;;;;;0.95;0.30;;;10.50;71.00;;;;;;6159561;23;20061;-76
2022/01/23 07:20:06;;;;;;;0.30;0.10;;;10.40;71.00;;;;;;6158137;23;20017;-76
2022/01/23 07:22:32;;;;;;;0.63;0.20;;;10.40;71.00;;;;;;6159483;23;20021;-77
2022/01/23 07:25:02;;;;;;;0.85;0.25;;;10.50;71.00;;;;;;6159444;23;20035;-75
2022/01/23 07:27:33;;;;;;;0.52;0.20;;;10.50;71.00;;;;;;6158454;23;20021;-75
2022/01/23 07:29:59;;;;;;;0.45;0.10;;;10.50;71.00;;;;;;6158034;23;20056;-76
2022/01/23 07:32:24;;;;;;;0.20;0.20;;;10.50;71.10;;;;;;6158050;23;20029;-78
2022/01/23 07:34:50;;;;;;;0.50;0.20;;;10.40;71.00;;;;;;6159227;23;20021;-77
2022/01/23 07:37:16;;;;;;;0.65;0.10;;;10.40;71.00;;;;;;6159988;23;20033;-77
2022/01/23 07:39:41;;;;;;;0.60;0.10;;;10.40;71.00;;;;;;6158380;23;20301;-77
2022/01/23 07:42:08;;;;;;;0.47;0.10;;;10.50;71.10;;;;;;6158259;23;20352;-75
2022/01/23 07:44:33;;;;;;;1.10;0.22;;;10.40;71.10;;;;;;6158201;23;20033;-75
2022/01/23 07:46:59;;;;;;;0.50;0.20;;;10.40;71.10;;;;;;6157858;23;20022;-74
2022/01/23 07:49:25;;;;;;;0.68;0.20;;;10.40;71.10;;;;;;6158214;23;20025;-77
2022/01/23 07:51:51;;;;;;;0.60;0.20;;;10.40;71.10;;;;;;6158158;23;20032;-76
2022/01/23 07:54:17;;;;;;;0.47;0.17;;;10.40;71.10;;;;;;6158504;23;20032;-76
2022/01/23 07:56:43;;;;;;;0.52;0.20;;;10.50;71.10;;;;;;6133202;23;20089;-76
2022/01/23 07:59:09;;;;;;;1.58;0.22;;;10.40;71.10;;;;;;6158371;23;20065;-75
2022/01/23 08:01:38;;;;;;;0.95;0.20;;;10.50;71.10;;;;;;6157682;23;20029;-75
2022/01/23 08:04:06;;;;;;;1.30;0.20;;;10.40;71.10;;;;;;6158980;23;20022;-77
2022/01/23 08:06:33;;;;;;;0.43;0.10;;;10.50;71.70;;;;;;6157656;23;20088;-75
2022/01/23 08:08:59;;;;;;;0.52;0.10;;;10.40;71.10;;;;;;6158692;23;20033;-76
2022/01/23 08:11:25;;;;;;;0.70;0.30;;;10.40;71.10;;;;;;6158944;23;20084;-76
2022/01/23 08:13:51;;;;;;;0.32;0.13;;;10.40;71.10;;;;;;6157699;23;20022;-76
2022/01/23 08:16:16;;;;;;;0.30;0.10;;;10.40;71.00;;;;;;6157548;23;20041;-77
2022/01/23 08:18:42;;;;;;;0.63;0.30;;;10.40;71.10;;;;;;6157512;23;20028;-78
2022/01/23 08:21:08;;;;;;;1.60;0.40;;;10.50;71.10;;;;;;6158867;23;20120;-77
2022/01/23 08:23:34;;;;;;;1.27;0.25;;;10.50;71.00;;;;;;6158914;23;20025;-76
2022/01/23 08:25:59;;;;;;;0.60;0.20;;;10.50;71.00;;;;;;6158916;23;20022;-76
2022/01/23 08:28:25;;;;;;;0.73;0.28;;;10.50;70.90;;;;;;6158894;23;20309;-76
2022/01/23 08:30:51;;;;;;;0.93;0.22;;;10.50;70.90;;;;;;6159078;23;20084;-78
2022/01/23 08:33:17;;;;;;;1.08;0.30;;;10.50;70.90;;;;;;6159604;23;20032;-76
2022/01/23 08:35:45;;;;;;;0.50;0.28;;;10.50;71.00;;;;;;6158270;23;20467;-76
2022/01/23 08:38:13;;;;;;;0.73;0.20;;;10.50;70.90;;;;;;6158979;23;20288;-77
2022/01/23 08:43:08;;;;;;;1.25;0.25;;;10.50;70.90;;;;;;6159315;23;20022;-75
2022/01/23 08:45:34;;;;;;;0.65;0.10;;;10.50;70.90;;;;;;6158454;23;20013;-75
2022/01/23 08:48:00;;;;;;;1.10;0.30;;;10.50;70.90;;;;;;6159398;23;20408;-76
2022/01/23 08:50:26;;;;;;;0.65;0.35;;;10.50;70.90;;;;;;6159123;23;20113;-75
2022/01/23 08:52:52;;;;;;;0.73;0.40;;;10.50;70.90;;;;;;6158375;23;20076;-77
2022/01/23 08:55:19;;;;;;;0.93;0.40;;;10.50;71.00;;;;;;6158891;23;20358;-76
2022/01/23 08:57:45;;;;;;;1.05;0.50;;;10.50;71.00;;;;;;6159550;23;20017;-77
2022/01/23 09:00:11;;;;;;;0.38;0.15;;;10.50;71.00;;;;;;6159035;23;20446;-75
2022/01/23 09:02:37;;;;;;;0.90;0.40;;;10.50;71.00;;;;;;6156935;23;20035;-76
2022/01/23 09:05:03;;;;;;;0.98;0.30;;;10.50;71.00;;;;;;6159276;23;20096;-76
2022/01/23 09:07:28;;;;;;;1.23;0.40;;;10.50;70.90;;;;;;6159592;23;20018;-77
2022/01/23 09:10:01;;;;;;;0.68;0.20;;;10.50;70.90;;;;;;6158522;23;20423;-75
2022/01/23 09:14:52;;;;;;;1.27;0.50;;;10.50;71.00;;;;;;6158224;23;20061;-75
2022/01/23 09:17:18;;;;;;;2.28;0.40;;;10.50;71.00;;;;;;6158495;23;20092;-75
2022/01/23 09:19:46;;;;;;;1.23;0.45;;;10.50;71.00;;;;;;6157704;23;20028;-75
2022/01/23 09:22:12;;;;;;;1.52;0.50;;;10.50;71.10;;;;;;6156842;23;20021;-77
2022/01/23 09:24:39;;;;;;;1.40;0.43;;;10.50;71.10;;;;;;6158735;23;20021;-77
2022/01/23 09:27:07;;;;;;;1.35;0.63;;;10.50;71.10;;;;;;6158419;23;20307;-75
2022/01/23 09:29:40;;;;;;;2.35;0.60;;;10.50;71.00;;;;;;6158415;23;20431;-76
2022/01/23 09:32:12;;;;;;;2.47;0.63;;;10.50;71.00;;;;;;6158747;23;20013;-77
2022/01/23 09:34:41;;;;;;;2.03;0.60;;;10.50;71.00;;;;;;6157189;23;20028;-76
2022/01/23 09:37:09;;;;;;;1.90;0.60;;;10.50;70.90;;;;;;6158250;23;20087;-76
2022/01/23 09:39:36;;;;;;;1.85;0.68;;;10.60;71.00;;;;;;6157476;23;20057;-74
2022/01/23 09:42:23;;;;;;;2.53;0.68;;;10.50;70.90;;;;;;6158063;23;20269;-78
2022/01/23 09:44:58;;;;;;;1.92;0.63;;;10.50;70.90;;;;;;6157335;23;20021;-75
2022/01/23 09:47:24;;;;;;;1.10;0.50;;;10.60;71.00;;;;;;6158948;23;20040;-77
2022/01/23 09:49:52;;;;;;;1.08;0.77;;;10.50;70.90;;;;;;6158060;23;20371;-75
2022/01/23 09:52:20;;;;;;;1.38;0.60;;;10.50;70.90;;;;;;6157877;23;20083;-76
2022/01/23 09:54:56;;;;;;;1.80;0.80;;;10.50;70.90;;;;;;6157245;23;20017;-76
2022/01/23 09:57:25;;;;;;;1.75;0.60;;;10.60;71.00;;;;;;6158444;23;20452;-75
2022/01/23 09:59:55;;;;;;;1.67;0.90;;;10.50;70.90;;;;;;6157135;23;20018;-77
2022/01/23 10:02:23;;;;;;;1.17;0.80;;;10.50;71.00;;;;;;6157874;23;20024;-76
2022/01/23 10:04:52;;;;;;;1.75;0.80;;;10.50;71.00;;;;;;6158066;23;20088;-75
2022/01/23 10:07:20;;;;;;;1.85;0.85;;;10.60;71.00;;;;;;6157151;23;20014;-77
2022/01/23 10:09:53;;;;;;;0.93;0.47;;;10.60;71.00;;;;;;6159072;23;20017;-76
2022/01/23 10:12:20;;;;;;;2.45;0.60;;;10.50;70.90;;;;;;6157086;23;20032;-75
2022/01/23 10:14:46;;;;;;;0.95;0.60;;;10.50;70.90;;;;;;6156776;23;20028;-76
2022/01/23 10:17:12;;;;;;;1.23;0.50;;;10.60;71.00;;;;;;6158741;23;20348;-78
2022/01/23 10:19:39;;;;;;;1.67;0.70;;;10.50;71.00;;;;;;6158509;23;20021;-78
2022/01/23 10:22:06;;;;;;;1.58;0.68;;;10.60;71.00;;;;;;6157145;23;20080;-76
2022/01/23 10:24:32;;;;;;;1.27;0.65;;;10.60;71.10;;;;;;6157083;23;20021;-76
2022/01/23 10:27:00;;;;;;;1.67;0.65;;;10.50;71.00;;;;;;6157864;23;20017;-76
2022/01/23 10:29:36;;;;;;;1.58;0.65;;;10.60;71.10;;;;;;6157569;23;20089;-75
2022/01/23 10:32:07;;;;;;;1.77;0.77;;;10.60;71.00;;;;;;6156749;23;20028;-75
2022/01/23 10:35:01;;;;;;;2.10;0.82;;;10.60;71.00;;;;;;6157980;23;20017;-76
2022/01/23 10:37:35;;;;;;;1.30;0.60;;;10.60;70.90;;;;;;6157674;23;20048;-75
2022/01/23 10:40:06;;;;;;;0.60;0.40;;;10.60;70.90;;;;;;6157635;23;20028;-75
2022/01/23 10:50:51;;;;;;;1.15;0.70;;;10.60;71.00;;;;;;6156578;23;20022;-77
2022/01/23 10:53:16;;;;;;;2.38;0.80;;;10.60;71.10;;;;;;6157896;23;20032;-77
2022/01/23 10:55:44;;;;;;;1.50;0.80;;;10.60;71.00;;;;;;6158529;23;20052;-76
2022/01/23 10:58:21;;;;;;;1.30;0.70;;;10.60;71.10;;;;;;6158124;23;20014;-76
2022/01/23 11:00:46;;;;;;;1.40;0.70;;;10.60;71.00;;;;;;6156708;23;20017;-76
2022/01/23 11:03:22;;;;;;;1.92;0.90;;;10.60;71.10;;;;;;6158111;23;20315;-75
2022/01/23 11:05:49;;;;;;;3.25;1.35;;;10.60;71.10;;;;;;6157875;23;20032;-76
2022/01/23 11:08:19;;;;;;;3.03;0.80;;;10.60;71.10;;;;;;6158152;23;20018;-77
2022/01/23 11:11:04;;;;;;;2.15;0.85;;;10.60;71.10;;;;;;6157947;23;20021;-76
2022/01/23 11:19:35;;;;;;;1.80;0.82;;;10.60;71.10;;;;;;6158547;23;20026;-75
2022/01/23 11:22:03;;;;;;;3.63;1.02;;;10.60;71.10;;;;;;6157947;23;20426;-77
2022/01/23 11:24:38;;;;;;;2.05;1.00;;;10.60;71.10;;;;;;6157680;23;20018;-76
2022/01/23 11:27:07;;;;;;;1.52;0.93;;;10.60;71.20;;;;;;6157924;23;20323;-78
2022/01/23 11:29:32;;;;;;;1.70;0.80;;;10.60;71.20;;;;;;6156714;23;20285;-77
2022/01/23 11:31:59;;;;;;;2.20;0.93;;;10.60;71.20;;;;;;6156461;23;20105;-77
2022/01/23 11:34:28;;;;;;;2.33;0.77;;;10.60;71.20;;;;;;6157657;23;20022;-75
2022/01/23 11:36:54;;;;;;;2.00;0.85;;;10.60;71.20;;;;;;6158687;23;20021;-77
2022/01/23 11:39:36;;;;;;;2.28;1.10;;;10.60;71.10;;;;;;6158420;23;20028;-76
2022/01/23 11:50:47;;;;;;;1.67;0.90;;;10.60;71.10;;;;;;6159228;23;20021;-75
2022/01/23 11:56:28;;;;;;;2.30;0.95;;;10.70;71.10;;;;;;6159079;23;20427;-75
2022/01/23 11:59:12;;;;;;;3.17;1.23;;;10.60;71.10;;;;;;6159164;23;20079;-75
2022/01/23 12:01:40;;;;;;;1.83;0.90;;;10.60;71.10;;;;;;6159098;23;20451;-75
2022/01/23 12:04:06;;;;;;;1.00;0.70;;;10.60;71.10;;;;;;6159145;23;20022;-76
2022/01/23 12:06:32;;;;;;;1.85;0.90;;;10.70;71.10;;;;;;6158331;23;20022;-75
2022/01/23 12:09:09;;;;;;;1.40;0.80;;;10.60;71.00;;;;;;6159518;23;20039;-75
2022/01/23 12:11:53;;;;;;;1.95;0.88;;;10.60;71.10;;;;;;6157924;23;20057;-77
2022/01/23 12:16:58;;;;;;;1.98;0.75;;;10.70;71.10;;;;;;6158135;23;20391;-76
2022/01/23 12:19:26;;;;;;;2.80;0.73;;;10.70;71.10;;;;;;6157542;23;20025;-77
2022/01/23 12:21:53;;;;;;;1.48;0.90;;;10.70;71.10;;;;;;6159280;23;20088;-76
2022/01/23 12:24:22;;;;;;;2.92;0.98;;;10.70;71.10;;;;;;6159256;23;20014;-75
2022/01/23 12:26:49;;;;;;;1.67;0.80;;;10.70;71.10;;;;;;6159611;23;20324;-76
2022/01/23 12:29:25;;;;;;;1.25;0.85;;;10.70;71.10;;;;;;6157674;23;20152;-77
2022/01/23 12:32:18;;;;;;;1.35;0.70;;;10.60;71.00;;;;;;6158042;23;20057;-78
2022/01/23 12:34:49;;;;;;;1.35;0.70;;;10.70;71.10;;;;;;6159758;23;20036;-75
2022/01/23 12:37:15;;;;;;;1.40;0.70;;;10.60;71.10;;;;;;6158060;23;20029;-78
2022/01/23 12:39:41;;;;;;;1.48;0.65;;;10.60;71.00;;;;;;6157884;23;20100;-75
2022/01/23 12:42:07;;;;;;;1.63;0.50;;;10.60;71.10;;;;;;6158638;23;20105;-76
2022/01/23 12:44:36;;;;;;;1.13;0.50;;;10.70;71.20;;;;;;6158797;23;20026;-76
2022/01/23 12:47:07;;;;;;;1.40;0.52;;;10.60;71.10;;;;;;6158787;23;20021;-77
2022/01/23 12:49:34;;;;;;;1.50;0.70;;;10.60;71.10;;;;;;6159344;23;20174;-78
2022/01/23 12:52:07;;;;;;;2.67;0.93;;;10.60;71.10;;;;;;6158841;23;20037;-77
2022/01/23 12:54:53;;;;;;;1.08;0.50;;;10.70;71.20;;;;;;6158728;23;20018;-76
2022/01/23 12:57:36;;;;;;;1.88;0.68;;;10.60;71.10;;;;;;6157610;23;20022;-75
2022/01/23 13:00:15;;;;;;;1.55;0.60;;;10.70;71.10;;;;;;6158251;23;20021;-76
2022/01/23 13:02:46;;;;;;;0.93;0.47;;;10.60;71.10;;;;;;6158198;23;20096;-77
2022/01/23 13:05:14;;;;;;;2.38;0.77;;;10.70;71.10;;;;;;6158662;23;20360;-77
2022/01/23 13:32:04;;;;;;;2.22;0.82;;;10.70;71.10;;;;;;6157192;23;20415;-77
2022/01/23 13:34:36;;;;;;;1.27;0.60;;;10.70;71.10;;;;;;6157479;23;20408;-75
2022/01/23 13:37:10;;;;;;;1.88;0.63;;;10.70;71.10;;;;;;6158355;23;20026;-77
2022/01/23 13:39:43;;;;;;;;;;;10.70;71.10;;;;;;6159456;23;20092;-78
2022/01/23 13:59:26;;;;;;;1.17;0.50;;;10.70;71.10;;;;;;6156269;23;20096;-77
2022/01/23 14:02:13;;;;;;;0.60;0.45;;;10.70;71.10;;;;;;6158007;23;20017;-78
2022/01/23 14:04:42;;;;;;;1.85;0.70;;;10.70;71.10;;;;;;6158105;23;20026;-77
2022/01/23 14:07:08;;;;;;;1.08;0.50;;;10.70;71.00;;;;;;6158094;23;20020;-75
2022/01/23 14:09:39;;;;;;;1.70;0.82;;;10.70;71.10;;;;;;6156617;23;20356;-77
2022/01/23 14:12:11;;;;;;;1.33;0.63;;;10.70;71.10;;;;;;6157917;23;20428;-75
2022/01/23 14:15:05;;;;;;;1.80;0.70;;;10.70;71.10;;;;;;6158659;23;20052;-78
2022/01/23 14:17:36;;;;;;;1.95;1.00;;;10.70;71.10;;;;;;6157982;23;20057;-77
2022/01/23 14:20:16;;;;;;;1.83;0.57;;;10.70;71.10;;;;;;6156431;23;20053;-76
2022/01/23 14:22:44;;;;;;;1.50;0.63;;;10.70;71.10;;;;;;6158744;23;20029;-77
2022/01/23 14:25:22;;;;;;;1.00;0.70;;;10.70;71.10;;;;;;6157983;23;20025;-75
2022/01/23 14:28:00;;;;;;;1.60;0.80;;;10.70;71.10;;;;;;6157933;23;20028;-75
2022/01/23 14:30:29;;;;;;;1.33;0.63;;;10.70;71.10;;;;;;6158502;23;20033;-75
2022/01/23 14:33:03;;;;;;;1.85;0.50;;;10.70;71.10;;;;;;6158062;23;20013;-77
2022/01/23 14:35:31;;;;;;;0.80;0.50;;;10.70;71.10;;;;;;6157946;23;20025;-75
2022/01/23 14:38:19;;;;;;;1.75;0.68;;;10.70;71.10;;;;;;6158219;23;20044;-75
2022/01/23 14:40:58;;;;;;;1.35;0.75;;;10.70;71.10;;;;;;6158911;23;20024;-77
2022/01/23 14:43:38;;;;;;;1.80;1.08;;;10.70;71.10;;;;;;6158352;23;20079;-75
2022/01/23 14:46:06;;;;;;;1.63;0.77;;;10.70;71.10;;;;;;6157050;23;20017;-76
2022/01/23 14:48:43;;;;;;;1.15;0.65;;;10.70;71.10;;;;;;6157731;23;20025;-77
2022/01/23 14:51:10;;;;;;;1.55;0.70;;;10.70;71.10;;;;;;6157992;23;20092;-77
2022/01/23 14:53:38;;;;;;;1.77;1.02;;;10.70;71.20;;;;;;6157786;23;20079;-77
2022/01/23 14:56:06;;;;;;;1.27;0.70;;;10.70;71.10;;;;;;6156875;23;20018;-77
2022/01/23 14:58:33;;;;;;;1.67;1.02;;;10.70;71.10;;;;;;6156304;23;20018;-76
2022/01/23 15:01:02;;;;;;;1.50;0.82;;;10.70;71.20;;;;;;6157015;23;20096;-77
2022/01/23 15:03:29;;;;;;;2.75;0.80;;;10.70;71.20;;;;;;6156188;23;20049;-75
2022/01/23 15:05:55;;;;;;;2.50;0.85;;;10.70;71.20;;;;;;6156804;23;20017;-74
2022/01/23 15:08:24;;;;;;;1.85;0.80;;;10.70;71.20;;;;;;6158003;23;20071;-76
2022/01/23 15:10:52;;;;;;;1.60;0.77;;;10.70;71.20;;;;;;6156813;23;20017;-75
2022/01/23 15:13:19;;;;;;;1.15;0.73;;;10.60;71.10;;;;;;6159673;23;20032;-77
2022/01/23 15:15:46;;;;;;;1.63;0.68;;;10.70;71.20;;;;;;6159823;23;20021;-78
2022/01/23 15:18:13;;;;;;;2.47;0.75;;;10.70;71.10;;;;;;6158590;23;20076;-76
2022/01/23 15:20:39;;;;;;;1.95;1.08;;;10.70;71.20;;;;;;6158545;23;20359;-76
2022/01/23 15:23:07;;;;;;;1.85;0.75;;;10.70;71.20;;;;;;6157970;23;20032;-76
2022/01/23 15:25:33;;;;;;;2.30;0.90;;;10.70;71.20;;;;;;6159342;23;20025;-77
2022/01/23 15:27:59;;;;;;;2.00;0.90;;;10.70;71.20;;;;;;6158448;23;20430;-75
2022/01/23 15:30:26;;;;;;;1.25;0.88;;;10.70;71.10;;;;;;6158317;23;20017;-77
2022/01/23 15:32:53;;;;;;;1.90;0.85;;;10.70;71.10;;;;;;6158849;23;20416;-78
2022/01/23 15:35:20;;;;;;;1.40;0.73;;;10.70;71.10;;;;;;6157971;23;20022;-75
2022/01/23 15:37:47;;;;;;;2.55;0.90;;;10.70;71.10;;;;;;6158501;23;20403;-75
2022/01/23 15:40:14;;;;;;;1.67;0.77;;;10.70;71.10;;;;;;6158307;23;20021;-76
2022/01/23 15:42:42;;;;;;;1.58;0.93;;;10.70;71.10;;;;;;6158070;23;20032;-75
2022/01/23 15:45:08;;;;;;;1.77;0.73;;;10.70;71.10;;;;;;6158939;23;20044;-78
2022/01/23 15:47:34;;;;;;;1.98;1.05;;;10.70;71.10;;;;;;6159363;23;20037;-78
2022/01/23 15:50:00;;;;;;;1.15;0.60;;;10.70;71.10;;;;;;6158074;23;20029;-75
2022/01/23 15:52:26;;;;;;;1.40;0.60;;;10.70;71.10;;;;;;6157955;23;20092;-78
2022/01/23 15:54:52;;;;;;;2.13;0.60;;;10.70;71.10;;;;;;6157966;23;20349;-77
2022/01/23 15:57:18;;;;;;;1.42;0.80;;;10.70;71.10;;;;;;6157656;23;20025;-76
2022/01/23 15:59:43;;;;;;;1.42;0.70;;;10.70;71.70;;;;;;6158412;23;20088;-76
2022/01/23 16:02:09;;;;;;;2.22;1.23;;;10.70;71.00;;;;;;6158893;23;20013;-75
2022/01/23 16:04:38;;;;;;;1.40;0.77;;;10.70;71.00;;;;;;6158016;23;20060;-77
2022/01/23 16:07:06;;;;;;;2.25;0.93;;;10.70;71.00;;;;;;6159036;23;20027;-75
2022/01/23 16:09:33;;;;;;;1.10;0.77;;;10.70;71.00;;;;;;6157914;23;20415;-76
2022/01/23 16:11:58;;;;;;;1.77;1.15;;;10.70;71.00;;;;;;6158198;23;20018;-75
2022/01/23 16:14:24;;;;;;;1.73;0.82;;;10.70;71.00;;;;;;6158904;23;20339;-76
2022/01/23 16:16:50;;;;;;;1.85;0.70;;;10.70;71.00;;;;;;6158894;23;20017;-75
2022/01/23 16:19:16;;;;;;;1.80;0.98;;;10.70;71.10;;;;;;6158826;23;20052;-76
2022/01/23 16:21:44;;;;;;;1.33;0.73;;;10.70;71.00;;;;;;6158589;23;20030;-77